Time,TemperatureF,DewpointF,PressureIn,WindDirection,WindDirectionDegrees,WindSpeedMPH,WindSpeedGustMPH,Humidity,HourlyPrecipIn,Conditions,Clouds,dailyrainin,SoftwareType,DateUTC
2013-07-09 00:02:00,56.0,45.0,29.93,North,5,0.0,3.0,66,0.00,,,0.02,,2013-07-09 07:02:00,
2013-07-09 00:11:00,56.0,45.0,29.94,North,5,0.0,2.0,66,0.00,,,0.02,,2013-07-09 07:11:00,
2013-07-09 00:33:00,56.0,45.0,29.93,North,5,0.0,1.0,66,0.00,,,0.02,,2013-07-09 07:33:00,
2013-07-09 00:42:00,55.0,46.0,29.94,NNE,14,0.0,3.0,72,0.00,,,0.02,,2013-07-09 07:42:00,
2013-07-09 00:53:00,53.0,45.0,29.94,NNE,14,0.0,3.0,74,0.00,,,0.02,,2013-07-09 07:53:00,
2013-07-09 01:01:00,53.0,45.0,29.94,NNE,14,0.0,3.0,74,0.00,,,0.02,,2013-07-09 08:01:00,
2013-07-09 01:33:00,52.0,45.0,29.94,NW,322,1.0,4.0,76,0.00,,,0.02,,2013-07-09 08:33:00,
2013-07-09 01:43:00,53.0,44.0,29.94,North,360,0.0,3.0,71,0.00,,,0.02,,2013-07-09 08:43:00,
2013-07-09 01:52:00,52.0,44.0,29.95,WNW,294,2.0,4.0,74,0.00,,,0.02,,2013-07-09 08:52:00,
2013-07-09 02:02:00,52.0,44.0,29.95,WNW,294,2.0,4.0,74,0.00,,,0.02,,2013-07-09 09:02:00,
2013-07-09 02:11:00,51.0,43.0,29.96,WNW,294,0.0,1.0,75,0.00,,,0.02,,2013-07-09 09:11:00,
2013-07-09 02:22:00,51.0,44.0,29.96,NW,325,0.0,4.0,76,0.00,,,0.02,,2013-07-09 09:22:00,
2013-07-09 02:34:00,51.0,44.0,29.96,NW,325,0.0,4.0,76,0.00,,,0.02,,2013-07-09 09:34:00,
2013-07-09 02:42:00,51.0,45.0,29.96,NNE,17,0.0,4.0,79,0.00,,,0.02,,2013-07-09 09:42:00,
2013-07-09 02:52:00,51.0,44.0,29.96,NNE,17,0.0,1.0,78,0.00,,,0.02,,2013-07-09 09:52:00,
2013-07-09 03:01:00,51.0,44.0,29.96,NNE,17,0.0,1.0,78,0.00,,,0.02,,2013-07-09 10:01:00,
2013-07-09 03:11:00,51.0,44.0,29.96,NNE,17,0.0,2.0,77,0.00,,,0.02,,2013-07-09 10:11:00,
2013-07-09 03:22:00,50.0,44.0,29.96,North,5,0.0,2.0,79,0.00,,,0.02,,2013-07-09 10:22:00,
2013-07-09 03:33:00,50.0,44.0,29.96,North,5,0.0,2.0,79,0.00,,,0.02,,2013-07-09 10:33:00,
2013-07-09 03:42:00,50.0,44.0,29.96,North,5,0.0,1.0,79,0.00,,,0.02,,2013-07-09 10:42:00,
2013-07-09 03:52:00,50.0,43.0,29.96,North,5,0.0,2.0,78,0.00,,,0.02,,2013-07-09 10:52:00,
2013-07-09 04:01:00,50.0,43.0,29.96,North,5,0.0,2.0,78,0.00,,,0.02,,2013-07-09 11:01:00,
2013-07-09 04:11:00,50.0,44.0,29.96,North,5,0.0,3.0,79,0.00,,,0.02,,2013-07-09 11:11:00,
2013-07-09 04:22:00,50.0,44.0,29.96,North,5,0.0,0.0,79,0.00,,,0.02,,2013-07-09 11:22:00,
2013-07-09 04:33:00,50.0,44.0,29.96,North,5,0.0,0.0,79,0.00,,,0.02,,2013-07-09 11:33:00,
2013-07-09 04:42:00,49.0,42.0,29.97,North,5,0.0,2.0,78,0.00,,,0.02,,2013-07-09 11:42:00,
2013-07-09 04:53:00,48.0,42.0,29.97,NE,42,0.0,5.0,81,0.00,,,0.02,,2013-07-09 11:53:00,
2013-07-09 05:02:00,48.0,42.0,29.97,NE,42,0.0,5.0,81,0.00,,,0.02,,2013-07-09 12:02:00,
2013-07-09 05:11:00,46.0,41.0,29.98,NE,42,0.0,2.0,84,0.00,,,0.02,,2013-07-09 12:11:00,
2013-07-09 05:22:00,46.0,42.0,29.98,NE,37,0.0,1.0,85,0.00,,,0.00,,2013-07-09 12:22:00,
2013-07-09 05:33:00,46.0,42.0,29.98,NE,37,0.0,1.0,85,0.00,,,0.00,,2013-07-09 12:33:00,
2013-07-09 05:52:00,46.0,43.0,29.99,NNE,32,0.0,2.0,88,0.00,,,0.00,,2013-07-09 12:52:00,
2013-07-09 06:11:00,47.0,44.0,30.00,NNE,20,2.0,4.0,89,0.00,,,0.00,,2013-07-09 13:11:00,
2013-07-09 06:21:00,47.0,44.0,30.00,NNE,20,2.0,4.0,89,0.00,,,0.00,,2013-07-09 13:21:00,
2013-07-09 06:33:00,48.0,45.0,30.00,NNE,17,0.0,3.0,88,0.00,,,0.00,,2013-07-09 13:33:00,
2013-07-09 06:43:00,49.0,46.0,30.00,NNE,17,0.0,2.0,88,0.00,,,0.00,,2013-07-09 13:43:00,
2013-07-09 06:53:00,50.0,47.0,30.01,NNE,17,0.0,1.0,89,0.00,,,0.00,,2013-07-09 13:53:00,
2013-07-09 07:01:00,50.0,47.0,30.01,NNE,17,0.0,1.0,89,0.00,,,0.00,,2013-07-09 14:01:00,
2013-07-09 07:11:00,51.0,48.0,30.01,NE,36,0.0,3.0,88,0.00,,,0.00,,2013-07-09 14:11:00,
2013-07-09 07:34:00,52.0,48.0,30.01,NE,36,1.0,2.0,87,0.00,,,0.00,,2013-07-09 14:34:00,
2013-07-09 07:43:00,54.0,50.0,30.01,NE,35,1.0,3.0,85,0.00,,,0.00,,2013-07-09 14:43:00,
2013-07-09 07:53:00,54.0,50.0,30.01,NE,35,1.0,3.0,85,0.00,,,0.00,,2013-07-09 14:53:00,
2013-07-09 08:01:00,55.0,49.0,30.02,NE,36,0.0,1.0,81,0.00,,,0.00,,2013-07-09 15:01:00,
2013-07-09 08:11:00,58.0,51.0,30.02,NE,36,0.0,2.0,78,0.00,,,0.00,,2013-07-09 15:11:00,
2013-07-09 08:33:00,61.0,52.0,30.02,NE,36,0.0,3.0,72,0.00,,,0.00,,2013-07-09 15:33:00,
2013-07-09 08:43:00,64.0,52.0,30.02,NE,46,0.0,3.0,65,0.00,,,0.00,,2013-07-09 15:43:00,
2013-07-09 08:52:00,64.0,52.0,30.02,NE,46,0.0,3.0,65,0.00,,,0.00,,2013-07-09 15:52:00,
2013-07-09 09:01:00,66.0,53.0,30.03,ENE,77,2.0,4.0,63,0.00,,,0.00,,2013-07-09 16:01:00,
2013-07-09 09:11:00,68.0,51.0,30.03,ESE,107,1.0,4.0,55,0.00,,,0.00,,2013-07-09 16:11:00,
2013-07-09 09:43:00,70.0,53.0,30.02,ENE,57,0.0,3.0,54,0.00,,,0.00,,2013-07-09 16:43:00,
2013-07-09 09:52:00,70.0,53.0,30.02,ENE,57,0.0,3.0,54,0.00,,,0.00,,2013-07-09 16:52:00,
2013-07-09 10:11:00,72.0,53.0,30.02,ENE,73,0.0,3.0,51,0.00,,,0.00,,2013-07-09 17:11:00,
2013-07-09 10:22:00,72.0,53.0,30.02,ENE,73,0.0,3.0,51,0.00,,,0.00,,2013-07-09 17:22:00,
2013-07-09 10:45:00,74.0,55.0,30.01,NE,46,3.0,7.0,52,0.00,,,0.00,,2013-07-09 17:45:00,
2013-07-09 12:11:00,80.0,53.0,29.98,ENE,61,0.0,4.0,39,0.00,,,0.00,,2013-07-09 19:11:00,
2013-07-09 12:33:00,81.0,58.0,29.97,NNE,29,1.0,4.0,45,0.00,,,0.00,,2013-07-09 19:33:00,
2013-07-09 12:52:00,82.0,51.0,29.96,East,94,0.0,3.0,34,0.00,,,0.00,,2013-07-09 19:52:00,
2013-07-09 13:01:00,82.0,51.0,29.96,East,94,0.0,3.0,34,0.00,,,0.00,,2013-07-09 20:01:00,
2013-07-09 13:11:00,82.0,54.0,29.95,NE,54,2.0,4.0,38,0.00,,,0.00,,2013-07-09 20:11:00,
2013-07-09 13:32:00,83.0,54.0,29.95,ESE,111,1.0,4.0,37,0.00,,,0.00,,2013-07-09 20:32:00,
2013-07-09 13:42:00,83.0,51.0,29.94,SW,232,2.0,5.0,33,0.00,,,0.00,,2013-07-09 20:42:00,
2013-07-09 13:52:00,83.0,51.0,29.94,SW,232,2.0,5.0,33,0.00,,,0.00,,2013-07-09 20:52:00,
2013-07-09 14:01:00,84.0,55.0,29.94,NNE,23,0.0,4.0,37,0.00,,,0.00,,2013-07-09 21:01:00,
2013-07-09 14:11:00,85.0,55.0,29.93,NE,51,1.0,5.0,36,0.00,,,0.00,,2013-07-09 21:11:00,
2013-07-09 14:22:00,85.0,55.0,29.93,NE,51,1.0,5.0,36,0.00,,,0.00,,2013-07-09 21:22:00,
2013-07-09 14:32:00,85.0,53.0,29.93,ESE,107,2.0,6.0,34,0.00,,,0.00,,2013-07-09 21:32:00,
2013-07-09 14:42:00,85.0,52.0,29.92,ESE,117,1.0,7.0,32,0.00,,,0.00,,2013-07-09 21:42:00,
2013-07-09 15:11:00,85.0,52.0,29.91,NNW,344,1.0,6.0,32,0.00,,,0.00,,2013-07-09 22:11:00,
2013-07-09 15:42:00,86.0,50.0,29.90,NE,37,1.0,7.0,29,0.00,,,0.00,,2013-07-09 22:42:00,
2013-07-09 17:22:00,85.0,53.0,29.87,North,9,3.0,7.0,34,0.00,,,0.00,,2013-07-10 00:22:00,
2013-07-09 22:32:00,67.0,49.0,29.86,NNW,328,2.0,6.0,52,0.00,,,0.00,,2013-07-10 05:32:00,
2013-07-09 22:42:00,68.0,49.0,29.86,NW,323,0.0,7.0,50,0.00,,,0.00,,2013-07-10 05:42:00,
2013-07-09 22:52:00,68.0,49.0,29.86,NW,325,0.0,2.0,50,0.00,,,0.00,,2013-07-10 05:52:00,
2013-07-09 23:01:00,68.0,49.0,29.86,NW,325,0.0,2.0,50,0.00,,,0.00,,2013-07-10 06:01:00,
2013-07-09 23:11:00,68.0,49.0,29.86,NW,319,0.0,2.0,50,0.00,,,0.00,,2013-07-10 06:11:00,
2013-07-09 23:21:00,68.0,49.0,29.86,NW,319,0.0,2.0,50,0.00,,,0.00,,2013-07-10 06:21:00,
2013-07-09 23:32:00,68.0,49.0,29.86,NW,319,0.0,2.0,50,0.00,,,0.00,,2013-07-10 06:32:00,
2013-07-09 23:42:00,68.0,46.0,29.86,NW,311,0.0,2.0,46,0.00,,,0.00,,2013-07-10 06:42:00,
2013-07-09 23:52:00,68.0,46.0,29.86,NW,311,0.0,2.0,46,0.00,,,0.00,,2013-07-10 06:52:00,